Time;durP1;ratioP1;P1;durP2;ratioP2;P2;SDS_P1;SDS_P2;PMS_P1;PMS_P2;Temp;Humidity;BMP_temperature;BMP_pressure;BME280_temperature;BME280_humidity;BME280_pressure;Samples;Min_cycle;Max_cycle;Signal;HPM_P1;HPM_P2
2021/05/05 00:00:48;;;;;;;7.13;3.95;;;16.20;99.90;;;;;;4934820;29;20046;-70
2021/05/05 00:03:15;;;;;;;9.52;4.10;;;16.20;99.90;;;;;;4916526;29;20040;-70
2021/05/05 00:05:42;;;;;;;6.80;2.90;;;16.20;99.90;;;;;;4931074;29;20032;-70
2021/05/05 00:08:10;;;;;;;9.45;3.08;;;16.10;99.90;;;;;;4935411;29;20555;-70
2021/05/05 00:10:37;;;;;;;8.18;2.53;;;16.20;99.90;;;;;;4937562;29;20063;-70
2021/05/05 00:13:04;;;;;;;6.97;2.10;;;16.20;99.90;;;;;;4935368;29;20032;-69
2021/05/05 00:15:32;;;;;;;4.85;2.17;;;16.20;99.90;;;;;;4933489;29;20027;-70
2021/05/05 00:17:59;;;;;;;8.85;2.42;;;16.30;99.90;;;;;;4931300;29;20035;-69
2021/05/05 00:20:26;;;;;;;7.55;2.75;;;16.30;99.90;;;;;;4933803;29;20405;-70
2021/05/05 00:22:54;;;;;;;6.10;2.05;;;16.40;99.90;;;;;;4932879;29;20034;-70
2021/05/05 00:25:21;;;;;;;7.15;2.40;;;16.40;99.90;;;;;;4932970;29;20501;-69
2021/05/05 00:27:50;;;;;;;6.25;1.80;;;16.50;99.90;;;;;;4923604;29;20068;-69
2021/05/05 00:30:19;;;;;;;6.95;1.58;;;16.50;99.90;;;;;;4934223;29;20147;-70
2021/05/05 00:32:46;;;;;;;4.28;2.28;;;16.60;99.90;;;;;;4931814;29;20038;-70
2021/05/05 00:35:13;;;;;;;3.65;1.15;;;16.60;99.90;;;;;;4931728;29;20039;-69
2021/05/05 00:37:44;;;;;;;4.57;1.90;;;16.60;99.90;;;;;;4931266;29;20043;-70
2021/05/05 00:40:12;;;;;;;5.32;1.83;;;16.70;99.90;;;;;;4934393;29;20559;-70
2021/05/05 00:42:40;;;;;;;6.38;1.58;;;16.70;99.90;;;;;;4932684;29;20409;-70
2021/05/05 00:45:11;;;;;;;5.32;1.70;;;16.90;99.90;;;;;;4935452;29;20035;-70
2021/05/05 00:47:39;;;;;;;5.90;1.73;;;17.00;99.90;;;;;;4933468;29;20036;-70
2021/05/05 00:50:10;;;;;;;8.20;1.92;;;17.00;99.90;;;;;;4934851;29;20093;-70
2021/05/05 00:52:38;;;;;;;9.48;2.58;;;17.20;99.90;;;;;;4936635;29;20062;-70
2021/05/05 00:55:06;;;;;;;6.57;1.65;;;17.20;99.90;;;;;;4935640;29;20038;-70
2021/05/05 00:57:34;;;;;;;4.70;1.67;;;17.40;99.90;;;;;;4939291;29;20035;-70
2021/05/05 01:00:03;;;;;;;6.30;1.23;;;17.50;99.90;;;;;;4934703;29;20071;-70
2021/05/05 01:02:31;;;;;;;3.88;1.90;;;17.70;99.90;;;;;;4932039;29;20031;-69
2021/05/05 01:05:00;;;;;;;4.75;1.42;;;17.90;99.90;;;;;;4931688;29;20032;-70
2021/05/05 01:07:28;;;;;;;7.25;1.58;;;18.10;99.90;;;;;;4934385;29;20071;-70
2021/05/05 01:09:55;;;;;;;4.28;0.90;;;18.10;99.90;;;;;;4933501;29;20370;-70
2021/05/05 01:12:23;;;;;;;5.13;1.67;;;18.10;99.90;;;;;;4933791;29;20040;-70
2021/05/05 01:14:50;;;;;;;7.15;1.17;;;18.00;99.90;;;;;;4931992;29;20055;-70
2021/05/05 01:17:18;;;;;;;4.28;1.42;;;17.90;99.90;;;;;;4930197;29;20054;-70
2021/05/05 01:19:46;;;;;;;2.85;1.42;;;17.80;99.90;;;;;;4933777;29;20472;-70
2021/05/05 01:22:13;;;;;;;4.80;1.23;;;17.70;99.90;;;;;;4935471;29;20461;-70
2021/05/05 01:24:41;;;;;;;8.18;1.35;;;17.70;99.90;;;;;;4933236;29;20063;-70
2021/05/05 01:27:09;;;;;;;11.80;2.97;;;17.70;99.90;;;;;;4935648;29;20453;-70
2021/05/05 01:29:38;;;;;;;6.35;1.30;;;17.80;99.90;;;;;;4934133;29;20122;-71
2021/05/05 01:32:06;;;;;;;7.43;1.08;;;17.80;99.90;;;;;;4935461;29;20067;-70
2021/05/05 01:34:36;;;;;;;9.60;2.45;;;17.70;99.90;;;;;;4933410;29;20526;-70
2021/05/05 01:37:04;;;;;;;9.80;1.58;;;17.70;99.90;;;;;;4935481;29;20481;-71
2021/05/05 01:39:32;;;;;;;4.35;0.70;;;17.50;99.90;;;;;;4933983;29;20044;-70
2021/05/05 01:41:59;;;;;;;4.60;0.93;;;16.80;99.90;;;;;;4935329;29;20151;-69
2021/05/05 01:44:37;;;;;;;2.80;0.75;;;16.60;99.90;;;;;;4933624;29;20059;-69
2021/05/05 01:47:07;;;;;;;3.70;0.75;;;16.50;99.90;;;;;;4935493;29;20509;-69
2021/05/05 01:49:34;;;;;;;5.18;0.75;;;16.50;99.90;;;;;;4932621;29;20039;-70
2021/05/05 01:52:06;;;;;;;5.97;1.58;;;16.50;99.90;;;;;;4923727;29;20652;-70
2021/05/05 01:54:37;;;;;;;4.70;1.00;;;16.60;99.90;;;;;;4934201;29;20059;-69
2021/05/05 01:57:33;;;;;;;4.57;1.25;;;16.70;99.90;;;;;;4939047;29;20077;-70
2021/05/05 02:00:02;;;;;;;9.48;1.08;;;16.80;99.90;;;;;;4938213;29;20039;-70
2021/05/05 02:02:30;;;;;;;5.43;1.10;;;16.80;99.90;;;;;;4937797;29;20036;-69
2021/05/05 02:04:58;;;;;;;5.18;1.38;;;16.80;99.90;;;;;;4937129;29;20036;-70
2021/05/05 02:07:25;;;;;;;6.03;1.17;;;16.80;99.90;;;;;;4938830;29;20115;-70
2021/05/05 02:09:53;;;;;;;6.97;1.35;;;17.00;99.90;;;;;;4935087;29;20728;-70
2021/05/05 02:12:21;;;;;;;6.07;1.27;;;17.20;99.90;;;;;;4935654;29;20528;-70
2021/05/05 02:14:49;;;;;;;6.38;1.30;;;17.20;99.90;;;;;;4935525;29;20043;-70
2021/05/05 02:17:18;;;;;;;9.95;1.80;;;17.20;99.90;;;;;;4938006;29;20091;-70
2021/05/05 02:19:45;;;;;;;11.07;2.10;;;17.30;99.90;;;;;;4937026;29;20118;-70
2021/05/05 02:22:13;;;;;;;8.63;2.33;;;17.30;99.90;;;;;;4938696;29;20118;-70
2021/05/05 02:24:40;;;;;;;10.90;2.75;;;17.20;99.90;;;;;;4934292;29;20425;-70
2021/05/05 02:27:08;;;;;;;10.20;2.67;;;17.10;99.90;;;;;;4934576;29;20505;-71
2021/05/05 02:29:35;;;;;;;5.63;1.52;;;17.00;99.90;;;;;;4936302;29;20048;-69
2021/05/05 02:32:10;;;;;;;7.20;1.52;;;17.00;99.90;;;;;;4938519;29;20036;-70
2021/05/05 02:34:39;;;;;;;6.63;1.92;;;17.20;99.90;;;;;;4936369;29;20425;-70
2021/05/05 02:37:09;;;;;;;6.93;1.23;;;17.30;99.90;;;;;;4938329;29;20040;-70
2021/05/05 02:39:38;;;;;;;7.15;1.58;;;17.40;99.90;;;;;;4936982;29;20390;-70
2021/05/05 02:42:06;;;;;;;7.05;0.80;;;17.50;99.90;;;;;;4938394;29;20484;-70
2021/05/05 02:44:34;;;;;;;7.60;1.40;;;17.40;99.90;;;;;;4936346;29;20118;-70
2021/05/05 02:47:02;;;;;;;7.07;1.10;;;17.50;99.90;;;;;;4937939;29;20366;-70
2021/05/05 02:49:31;;;;;;;4.40;1.30;;;17.70;99.90;;;;;;4937038;29;20090;-70
2021/05/05 02:52:02;;;;;;;6.55;1.27;;;18.00;99.90;;;;;;4938046;29;20047;-70
2021/05/05 02:54:30;;;;;;;8.88;1.02;;;18.30;99.90;;;;;;4936590;29;20048;-70
2021/05/05 02:56:58;;;;;;;1.98;0.43;;;18.80;99.90;;;;;;4937873;29;20040;-70
2021/05/05 02:59:25;;;;;;;3.50;0.35;;;18.50;99.90;;;;;;4936676;29;20496;-70
2021/05/05 03:01:53;;;;;;;4.93;0.50;;;18.20;99.90;;;;;;4937297;29;20404;-69
2021/05/05 03:04:21;;;;;;;4.05;0.60;;;17.90;99.90;;;;;;4933547;29;20043;-70
2021/05/05 03:06:48;;;;;;;5.35;0.60;;;17.80;99.90;;;;;;4932581;29;20098;-71
2021/05/05 03:09:19;;;;;;;5.75;0.40;;;17.40;99.90;;;;;;4935850;29;20040;-70
2021/05/05 03:11:46;;;;;;;5.45;0.60;;;17.30;99.90;;;;;;4937899;29;20028;-69
2021/05/05 03:14:14;;;;;;;6.20;0.77;;;17.30;99.90;;;;;;4933574;29;20032;-70
2021/05/05 03:16:41;;;;;;;12.65;1.08;;;17.30;99.90;;;;;;4936463;29;20055;-69
2021/05/05 03:19:08;;;;;;;5.63;0.77;;;17.20;99.90;;;;;;4929231;29;20040;-69
2021/05/05 03:21:39;;;;;;;5.72;0.80;;;17.20;99.90;;;;;;4918519;29;20397;-69
2021/05/05 03:24:07;;;;;;;13.23;1.85;;;;;;;;;;4929162;29;20031;-69
2021/05/05 03:26:35;;;;;;;5.97;0.60;;;;;;;;;;4937323;29;20417;-70
2021/05/05 03:29:02;;;;;;;8.52;1.08;;;;;;;;;;4934521;29;20039;-69
2021/05/05 03:31:29;;;;;;;4.82;0.50;;;;;;;;;;4937387;29;20035;-69
2021/05/05 03:33:56;;;;;;;9.68;1.02;;;;;;;;;;4935498;29;20032;-70
2021/05/05 03:36:23;;;;;;;7.10;1.02;;;;;;;;;;4929719;29;20441;-70
2021/05/05 03:38:50;;;;;;;6.10;0.98;;;;;;;;;;4926419;29;20118;-70
2021/05/05 03:41:18;;;;;;;7.65;0.77;;;;;;;;;;4934948;29;20110;-70
2021/05/05 03:43:45;;;;;;;8.43;1.45;;;;;;;;;;4935132;29;20135;-70
2021/05/05 03:46:12;;;;;;;11.00;1.85;;;;;;;;;;4937195;29;20054;-69
2021/05/05 03:48:39;;;;;;;9.95;1.50;;;;;;;;;;4930753;29;20040;-70
2021/05/05 03:51:06;;;;;;;7.05;0.75;;;;;;;;;;4933125;29;20040;-70
2021/05/05 03:53:34;;;;;;;7.68;1.05;;;;;;;;;;4933492;29;20050;-70
2021/05/05 03:56:01;;;;;;;6.53;1.35;;;;;;;;;;4936570;29;20028;-70
2021/05/05 03:58:28;;;;;;;6.95;0.73;;;;;;;;;;4935126;29;20067;-70
2021/05/05 04:00:55;;;;;;;11.38;1.27;;;;;;;;;;4935328;29;20035;-70
2021/05/05 04:03:22;;;;;;;3.28;0.80;;;;;;;;;;4930966;29;20031;-70
2021/05/05 04:05:49;;;;;;;3.33;0.45;;;;;;;;;;4934347;29;20043;-70
2021/05/05 04:08:16;;;;;;;7.57;0.80;;;;;;;;;;4934786;29;20032;-70
2021/05/05 04:10:44;;;;;;;9.65;1.17;;;;;;;;;;4936061;29;20047;-70
2021/05/05 04:13:11;;;;;;;6.05;0.57;;;;;;;;;;4933449;29;20035;-70
2021/05/05 04:15:38;;;;;;;5.53;0.50;;;;;;;;;;4933044;29;20114;-70
2021/05/05 04:18:05;;;;;;;2.83;0.20;;;;;;;;;;4932605;29;20578;-70
2021/05/05 04:20:33;;;;;;;14.52;5.65;;;;;;;;;;4939078;29;20039;-70
2021/05/05 04:23:00;;;;;;;2.28;0.30;;;;;;;;;;4935638;29;20051;-70
2021/05/05 04:25:27;;;;;;;4.45;0.40;;;;;;;;;;4935068;29;20039;-70
2021/05/05 04:27:55;;;;;;;2.35;0.30;;;;;;;;;;4932836;29;20039;-70
2021/05/05 04:30:22;;;;;;;4.20;0.47;;;;;;;;;;4933104;29;20036;-70
2021/05/05 04:32:50;;;;;;;2.10;0.30;;;;;;;;;;4929756;29;20118;-70
2021/05/05 04:35:25;;;;;;;7.13;1.33;;;;;;;;;;5078520;27;20424;-69
2021/05/05 04:37:52;;;;;;;6.95;1.10;;;;;;;;;;5062543;28;20025;-69
2021/05/05 04:40:19;;;;;;;1.67;0.32;;;;;;;;;;5051509;28;20025;-70
2021/05/05 04:42:46;;;;;;;3.63;0.30;;;;;;;;;;5069138;28;20470;-70
2021/05/05 04:45:13;;;;;;;1.70;0.38;;;;;;;;;;5069052;28;20077;-70
2021/05/05 04:47:41;;;;;;;4.00;0.55;;;;;;;;;;5062532;28;20103;-69
2021/05/05 04:50:09;;;;;;;4.85;0.40;;;;;;;;;;5061053;28;20025;-70
2021/05/05 04:52:37;;;;;;;4.70;0.40;;;;;;;;;;5060070;28;20086;-70
2021/05/05 04:55:04;;;;;;;6.00;0.85;;;;;;;;;;5060599;28;20218;-69
2021/05/05 04:57:32;;;;;;;2.70;0.30;;;;;;;;;;5061020;28;20025;-70
2021/05/05 04:59:59;;;;;;;3.72;0.75;;;;;;;;;;5065452;28;20092;-70
2021/05/05 05:02:26;;;;;;;2.88;0.38;;;;;;;;;;5064456;28;20071;-70
2021/05/05 05:04:53;;;;;;;3.08;0.45;;;;;;;;;;5056553;28;20068;-70
2021/05/05 05:07:20;;;;;;;3.65;0.57;;;;;;;;;;5052434;28;20104;-70
2021/05/05 05:09:47;;;;;;;4.35;1.25;;;;;;;;;;5053478;28;20401;-70
2021/05/05 05:12:15;;;;;;;3.20;0.50;;;;;;;;;;5057365;28;20035;-70
2021/05/05 05:14:42;;;;;;;3.38;1.00;;;;;;;;;;5058545;28;20037;-70
2021/05/05 05:17:09;;;;;;;1.52;0.57;;;;;;;;;;5053763;28;20053;-69
2021/05/05 05:19:36;;;;;;;3.80;0.47;;;;;;;;;;5056280;28;20076;-69
2021/05/05 05:22:03;;;;;;;4.43;0.73;;;;;;;;;;5054700;28;20024;-69
2021/05/05 05:24:31;;;;;;;1.63;0.32;;;;;;;;;;5058110;28;20033;-69
2021/05/05 05:26:58;;;;;;;0.98;0.40;;;;;;;;;;5046911;28;20022;-69
2021/05/05 05:29:25;;;;;;;3.17;0.30;;;;;;;;;;5060967;28;20047;-68
2021/05/05 05:31:52;;;;;;;1.75;0.20;;;;;;;;;;5063669;28;20067;-69
2021/05/05 05:34:19;;;;;;;2.65;0.40;;;;;;;;;;5063985;28;20036;-69
2021/05/05 05:36:46;;;;;;;2.25;0.38;;;;;;;;;;5068506;28;20500;-68
2021/05/05 05:39:13;;;;;;;2.28;0.40;;;;;;;;;;5057606;28;20040;-69
2021/05/05 05:41:40;;;;;;;1.75;0.40;;;;;;;;;;5068453;28;20021;-69
2021/05/05 05:44:08;;;;;;;2.63;0.43;;;;;;;;;;5068637;28;20103;-69
2021/05/05 05:46:38;;;;;;;3.28;0.60;;;;;;;;;;5056040;28;20496;-68
2021/05/05 05:49:06;;;;;;;4.78;0.43;;;;;;;;;;5047825;28;20021;-69
2021/05/05 05:51:34;;;;;;;3.10;0.75;;;;;;;;;;5035392;28;20029;-69
2021/05/05 05:54:01;;;;;;;6.47;0.65;;;;;;;;;;5039594;28;20059;-69
2021/05/05 05:56:28;;;;;;;4.50;0.40;;;;;;;;;;5040091;28;20049;-69
2021/05/05 05:58:56;;;;;;;4.13;0.50;;;;;;;;;;5045146;28;20087;-69
2021/05/05 06:01:23;;;;;;;2.47;0.30;;;;;;;;;;5043667;28;20022;-69
2021/05/05 06:03:50;;;;;;;5.00;1.05;;;;;;;;;;5045655;28;20095;-68
2021/05/05 06:06:17;;;;;;;6.35;0.50;;;;;;;;;;5048036;28;20061;-68
2021/05/05 06:08:45;;;;;;;2.78;0.35;;;;;;;;;;5047007;28;20096;-68
2021/05/05 06:11:12;;;;;;;2.55;0.40;;;;;;;;;;5039105;28;20034;-68
2021/05/05 06:13:39;;;;;;;3.85;0.75;;;;;;;;;;5041446;28;20061;-69
2021/05/05 06:16:06;;;;;;;2.85;0.60;;;;;;;;;;5055529;28;20052;-69
2021/05/05 06:18:33;;;;;;;5.50;0.73;;;;;;;;;;5049021;28;20025;-69
2021/05/05 06:21:01;;;;;;;2.45;0.40;;;;;;;;;;5054752;28;20025;-68
2021/05/05 06:23:28;;;;;;;1.65;0.30;;;;;;;;;;5047621;28;20029;-68
2021/05/05 06:25:56;;;;;;;3.25;0.40;;;;;;;;;;5045499;28;20021;-68
2021/05/05 06:28:24;;;;;;;1.40;0.20;;;;;;;;;;5039964;28;20021;-69
2021/05/05 06:30:54;;;;;;;4.85;0.50;;;;;;;;;;5054460;28;20033;-69
2021/05/05 06:33:21;;;;;;;9.63;1.88;;;;;;;;;;5052784;28;20448;-70
2021/05/05 06:35:48;;;;;;;7.78;0.90;;;;;;;;;;5053593;28;20021;-69
2021/05/05 06:38:15;;;;;;;9.32;0.60;;;;;;;;;;5039617;28;20029;-69
2021/05/05 06:40:42;;;;;;;3.40;0.68;;;;;;;;;;5054341;28;20076;-69
2021/05/05 06:43:09;;;;;;;5.75;0.80;;;;;;;;;;5053143;28;20543;-69
2021/05/05 06:45:36;;;;;;;5.90;0.95;;;;;;;;;;5034241;28;20026;-70
2021/05/05 06:48:03;;;;;;;6.30;0.70;;;;;;;;;;5043073;28;20024;-69
2021/05/05 06:50:30;;;;;;;5.00;0.80;;;;;;;;;;5042384;28;20021;-69
2021/05/05 06:52:58;;;;;;;7.20;1.13;;;;;;;;;;5043164;28;20037;-69
2021/05/05 06:55:25;;;;;;;4.97;0.82;;;;;;;;;;5047708;28;20061;-69
2021/05/05 06:57:52;;;;;;;4.22;1.50;;;;;;;;;;5046690;28;20024;-69
2021/05/05 07:00:20;;;;;;;4.88;0.90;;;;;;;;;;5048450;28;20037;-70
2021/05/05 07:02:47;;;;;;;6.75;0.70;;;;;;;;;;5042582;28;20024;-69
2021/05/05 07:05:14;;;;;;;5.10;0.80;;;;;;;;;;5045367;28;20044;-70
2021/05/05 07:07:41;;;;;;;7.28;1.33;;;;;;;;;;5044123;28;20013;-69
2021/05/05 07:10:11;;;;;;;6.95;1.08;;;;;;;;;;5039489;28;20477;-70
2021/05/05 07:12:38;;;;;;;10.35;1.30;;;;;;;;;;5038128;28;20080;-70
2021/05/05 07:15:06;;;;;;;11.65;1.20;;;;;;;;;;5049473;28;20090;-70
2021/05/05 07:17:33;;;;;;;5.35;0.75;;;;;;;;;;5045602;28;20025;-70
2021/05/05 07:20:01;;;;;;;6.43;1.23;;;;;;;;;;5051830;28;20025;-70
2021/05/05 07:22:28;;;;;;;5.88;1.48;;;;;;;;;;5041570;28;20028;-71
2021/05/05 07:24:55;;;;;;;9.43;1.63;;;;;;;;;;5046490;28;20032;-71
2021/05/05 07:27:22;;;;;;;8.52;1.95;;;;;;;;;;5042918;28;20111;-70
2021/05/05 07:29:49;;;;;;;10.73;1.05;;;;;;;;;;5048231;28;20079;-71
2021/05/05 07:32:16;;;;;;;12.73;1.63;;;;;;;;;;5053010;28;20025;-71
2021/05/05 07:34:44;;;;;;;7.85;1.58;;;;;;;;;;5051300;28;20048;-71
2021/05/05 07:37:21;;;;;;;12.50;1.50;;;;;;;;;;5041583;28;20033;-71
2021/05/05 07:47:54;;;;;;;16.35;3.17;;;;;;;;;;5043878;28;20543;-71
2021/05/05 07:50:22;;;;;;;13.63;1.80;;;;;;;;;;5041984;28;20465;-70
2021/05/05 07:52:51;;;;;;;9.68;1.75;;;;;;;;;;5041747;28;20021;-71
2021/05/05 07:55:19;;;;;;;10.30;2.10;;;;;;;;;;5035628;28;20536;-71
2021/05/05 07:57:47;;;;;;;13.20;1.88;;;;;;;;;;5034390;28;20044;-71
2021/05/05 08:00:14;;;;;;;6.78;1.02;;;;;;;;;;5047113;28;20036;-71
2021/05/05 08:02:41;;;;;;;11.20;1.08;;;;;;;;;;5040773;28;20371;-70
2021/05/05 08:05:09;;;;;;;6.30;1.17;;;;;;;;;;5043162;28;20055;-70
2021/05/05 08:07:36;;;;;;;7.63;0.80;;;;;;;;;;5044301;28;20073;-69
2021/05/05 08:10:04;;;;;;;3.15;0.60;;;;;;;;;;5044450;28;20017;-70
2021/05/05 08:12:32;;;;;;;6.05;0.80;;;;;;;;;;5041167;28;20033;-69
2021/05/05 08:14:59;;;;;;;5.53;1.08;;;;;;;;;;5042881;28;20041;-69
2021/05/05 08:17:26;;;;;;;4.75;0.60;;;;;;;;;;5044364;28;20025;-69
2021/05/05 08:19:53;;;;;;;10.65;1.17;;;;;;;;;;5046548;28;20025;-70
2021/05/05 08:22:20;;;;;;;6.00;1.05;;;;;;;;;;5056911;28;20021;-70
2021/05/05 08:24:47;;;;;;;7.63;0.75;;;;;;;;;;5040698;28;20036;-70
2021/05/05 08:27:14;;;;;;;6.55;1.15;;;;;;;;;;5039633;28;20029;-70
2021/05/05 08:29:41;;;;;;;6.60;1.77;;;;;;;;;;5034851;28;20021;-70
2021/05/05 08:32:09;;;;;;;6.30;0.95;;;;;;;;;;5039088;28;20030;-70
2021/05/05 08:34:36;;;;;;;5.28;1.20;;;;;;;;;;5044000;28;20840;-71
2021/05/05 08:37:03;;;;;;;9.23;1.30;;;;;;;;;;5038667;28;20070;-70
2021/05/05 08:39:30;;;;;;;5.18;1.02;;;;;;;;;;5040144;28;20017;-70
2021/05/05 08:41:58;;;;;;;9.55;2.35;;;;;;;;;;5037882;28;20022;-69
2021/05/05 08:44:25;;;;;;;5.25;1.05;;;;;;;;;;5041421;28;20470;-70
2021/05/05 08:46:53;;;;;;;7.65;0.98;;;;;;;;;;5044326;28;20029;-69
2021/05/05 08:49:20;;;;;;;5.93;0.60;;;;;;;;;;5046852;28;20159;-70
2021/05/05 08:51:48;;;;;;;4.15;1.02;;;;;;;;;;5040169;28;20037;-70
2021/05/05 08:54:16;;;;;;;10.65;1.20;;;;;;;;;;5045010;28;20042;-70
2021/05/05 08:56:43;;;;;;;9.18;1.67;;;;;;;;;;5046673;28;20405;-70
2021/05/05 08:59:12;;;;;;;7.25;1.52;;;;;;;;;;5044138;28;20513;-70
2021/05/05 09:01:40;;;;;;;7.70;1.60;;;;;;;;;;5041341;28;20027;-70
2021/05/05 09:04:08;;;;;;;4.13;1.45;;;;;;;;;;5044688;28;20025;-70
2021/05/05 09:06:50;;;;;;;6.20;1.25;;;;;;;;;;5044442;28;20127;-71
2021/05/05 09:09:33;;;;;;;8.07;1.83;;;;;;;;;;5040950;28;20120;-70
2021/05/05 09:12:20;;;;;;;14.63;1.83;;;;;;;;;;5042578;28;20025;-70
2021/05/05 09:14:51;;;;;;;8.43;1.20;;;;;;;;;;5041548;28;20041;-70
2021/05/05 09:17:20;;;;;;;4.88;0.82;;;;;;;;;;5039405;28;20040;-71
2021/05/05 09:19:47;;;;;;;5.13;0.90;;;;;;;;;;5036669;28;20451;-70
2021/05/05 09:22:14;;;;;;;6.57;1.25;;;;;;;;;;5050008;28;20026;-70
2021/05/05 09:24:41;;;;;;;6.65;1.20;;;;;;;;;;5050477;28;20021;-70
2021/05/05 09:27:09;;;;;;;6.80;0.90;;;;;;;;;;5047413;28;20504;-70
2021/05/05 09:29:46;;;;;;;5.72;1.00;;;;;;;;;;5047129;28;20078;-70
2021/05/05 09:32:14;;;;;;;9.10;1.85;;;;;;;;;;5046283;28;20029;-71
2021/05/05 09:34:42;;;;;;;7.03;0.80;;;;;;;;;;5046204;28;20094;-71
2021/05/05 09:37:10;;;;;;;4.88;0.80;;;;;;;;;;5039516;28;20116;-71
2021/05/05 09:39:39;;;;;;;6.15;0.90;;;;;;;;;;5049506;28;20025;-73
2021/05/05 09:42:19;;;;;;;7.40;1.10;;;;;;;;;;5047551;28;20021;-70
2021/05/05 09:44:55;;;;;;;4.82;0.82;;;;;;;;;;5048823;28;20112;-70
2021/05/05 09:47:22;;;;;;;7.82;0.80;;;;;;;;;;5042448;28;20385;-70
2021/05/05 09:49:50;;;;;;;3.80;0.98;;;;;;;;;;5039229;28;20051;-70
2021/05/05 09:52:24;;;;;;;3.55;0.85;;;;;;;;;;5054138;28;20100;-70
2021/05/05 09:54:59;;;;;;;3.80;1.10;;;;;;;;;;5053565;28;20056;-70
2021/05/05 09:57:26;;;;;;;8.65;1.75;;;;;;;;;;5041498;28;20501;-70
2021/05/05 10:00:13;;;;;;;4.50;0.60;;;;;;;;;;5039126;28;20033;-70
2021/05/05 10:02:50;;;;;;;5.53;1.27;;;;;;;;;;5044421;28;20377;-70
2021/05/05 10:05:20;;;;;;;4.47;0.70;;;;;;;;;;5050028;28;20035;-70
2021/05/05 10:07:58;;;;;;;6.18;0.60;;;;;;;;;;5042563;28;20025;-70
2021/05/05 10:10:26;;;;;;;5.20;0.70;;;;;;;;;;5051921;28;20068;-71
2021/05/05 10:12:57;;;;;;;4.53;0.95;;;;;;;;;;5045563;28;20026;-70
2021/05/05 10:15:27;;;;;;;4.05;0.40;;;;;;;;;;5051526;28;20039;-70
2021/05/05 10:17:54;;;;;;;6.03;0.57;;;;;;;;;;5037011;28;20025;-69
2021/05/05 10:20:23;;;;;;;2.70;0.50;;;;;;;;;;5037207;28;20029;-70
2021/05/05 10:22:53;;;;;;;2.88;0.50;;;;;;;;;;5038856;28;20025;-70
2021/05/05 10:25:23;;;;;;;6.03;0.60;;;;;;;;;;5047963;28;20033;-70
2021/05/05 10:27:51;;;;;;;4.40;1.15;;;;;;;;;;5034961;28;20025;-70
2021/05/05 10:30:25;;;;;;;5.80;0.98;;;;;;;;;;5038743;28;20096;-70
2021/05/05 10:32:53;;;;;;;6.90;0.80;;;;;;;;;;5052601;28;20499;-70
2021/05/05 10:35:22;;;;;;;4.68;0.55;;;;;;;;;;5047021;28;20049;-70
2021/05/05 10:37:55;;;;;;;5.25;0.73;;;;;;;;;;5032754;28;20034;-70
2021/05/05 10:40:24;;;;;;;4.25;0.60;;;;;;;;;;5034381;28;20028;-70
2021/05/05 10:42:51;;;;;;;4.28;0.85;;;;;;;;;;5038513;28;20021;-70
2021/05/05 10:45:42;;;;;;;2.65;0.57;;;;;;;;;;5044228;28;20045;-70
2021/05/05 10:48:13;;;;;;;3.47;0.60;;;;;;;;;;5042841;28;20538;-70
2021/05/05 10:50:53;;;;;;;4.07;0.85;;;;;;;;;;5053543;28;20025;-70
2021/05/05 10:53:21;;;;;;;6.65;1.45;;;;;;;;;;5053817;28;20500;-70
2021/05/05 10:55:53;;;;;;;6.22;1.35;;;;;;;;;;5053564;28;20083;-70
2021/05/05 10:58:24;;;;;;;6.78;0.90;;;;;;;;;;5044476;28;20119;-70
2021/05/05 11:00:57;;;;;;;5.15;0.70;;;;;;;;;;5054341;28;20103;-70
2021/05/05 11:03:42;;;;;;;2.67;0.50;;;;;;;;;;5042633;28;20021;-70
2021/05/05 11:06:30;;;;;;;5.57;0.73;;;;;;;;;;5048998;28;20068;-70
2021/05/05 11:08:58;;;;;;;2.38;0.50;;;;;;;;;;5039134;28;20064;-70
2021/05/05 11:11:41;;;;;;;5.93;0.95;;;;;;;;;;5049931;28;20501;-70
2021/05/05 11:14:09;;;;;;;8.60;0.90;;;;;;;;;;5040520;28;20042;-70
2021/05/05 11:17:01;;;;;;;4.40;0.88;;;;;;;;;;5044696;28;20591;-70
2021/05/05 11:19:43;;;;;;;5.75;1.00;;;;;;;;;;5042367;28;20049;-70
2021/05/05 11:22:33;;;;;;;4.93;0.70;;;;;;;;;;5034202;28;20030;-70
2021/05/05 11:25:18;;;;;;;8.27;1.48;;;;;;;;;;5053523;28;20432;-71
2021/05/05 11:27:53;;;;;;;2.28;0.70;;;;;;;;;;5038068;28;20041;-69
2021/05/05 11:30:30;;;;;;;4.70;0.80;;;;;;;;;;5035890;28;20449;-70
2021/05/05 11:32:57;;;;;;;5.47;0.80;;;;;;;;;;5048535;28;20478;-71
2021/05/05 11:35:31;;;;;;;5.40;0.80;;;;;;;;;;5049774;28;20056;-70
2021/05/05 11:38:26;;;;;;;5.80;0.70;;;;;;;;;;5040249;28;20021;-70
2021/05/05 11:40:58;;;;;;;3.13;0.98;;;;;;;;;;5031523;28;20141;-70
2021/05/05 11:43:26;;;;;;;7.22;1.10;;;;;;;;;;5036652;28;20026;-70
2021/05/05 11:45:57;;;;;;;9.90;0.70;;;;;;;;;;5050034;28;20082;-70
2021/05/05 11:48:28;;;;;;;4.57;0.98;;;;;;;;;;5048939;28;20102;-69
2021/05/05 11:50:55;;;;;;;8.27;1.05;;;;;;;;;;5033834;28;20032;-70
2021/05/05 11:53:48;;;;;;;7.10;0.65;;;;;;;;;;5033947;28;20057;-71
2021/05/05 11:56:17;;;;;;;8.18;1.83;;;;;;;;;;5033600;28;20044;-71
2021/05/05 11:58:53;;;;;;;5.75;1.02;;;;;;;;;;5037254;28;20028;-71
2021/05/05 12:01:30;;;;;;;6.07;0.80;;;;;;;;;;5038808;28;20028;-70
2021/05/05 12:04:15;;;;;;;11.48;1.50;;;;;;;;;;5040147;28;20017;-70
2021/05/05 12:06:54;;;;;;;6.13;1.27;;;;;;;;;;5041229;28;20036;-70
2021/05/05 12:09:26;;;;;;;4.18;1.13;;;;;;;;;;5047594;28;20032;-71
2021/05/05 12:12:11;;;;;;;6.35;0.90;;;;;;;;;;5043615;28;20428;-70
2021/05/05 12:14:39;;;;;;;6.65;1.15;;;;;;;;;;5041670;28;20481;-71
2021/05/05 12:17:53;;;;;;;12.65;1.73;;;;;;;;;;5046897;28;20056;-70
2021/05/05 12:20:11;;;;;;;5.28;0.85;;;;;;;;;;5042881;28;20021;-70
2021/05/05 12:22:51;;;;;;;6.57;1.70;;;;;;;;;;5040268;28;20063;-71
2021/05/05 12:25:20;;;;;;;3.33;0.73;;;;;;;;;;5043173;28;20520;-70
2021/05/05 12:27:59;;;;;;;5.78;1.35;;;;;;;;;;5046826;28;20438;-70
2021/05/05 12:30:35;;;;;;;6.85;1.17;;;;;;;;;;5037635;28;20017;-70
2021/05/05 12:33:02;;;;;;;8.13;2.30;;;;;;;;;;5041578;28;20022;-71
2021/05/05 12:35:29;;;;;;;5.88;1.08;;;;;;;;;;5045740;28;20044;-70
2021/05/05 12:37:57;;;;;;;4.65;0.93;;;;;;;;;;5041835;28;20079;-70
2021/05/05 12:40:26;;;;;;;8.02;1.02;;;;;;;;;;5046920;28;20017;-71
2021/05/05 12:42:53;;;;;;;6.90;1.20;;;;;;;;;;5048174;28;20017;-70
2021/05/05 12:45:21;;;;;;;4.38;0.75;;;;;;;;;;5043979;28;20091;-71
2021/05/05 12:47:49;;;;;;;4.43;0.77;;;;;;;;;;5034791;28;20051;-71
2021/05/05 12:50:17;;;;;;;8.43;1.38;;;;;;;;;;5041916;28;20021;-71
2021/05/05 12:52:44;;;;;;;3.38;0.90;;;;;;;;;;5051779;28;20037;-71
2021/05/05 12:55:32;;;;;;;8.40;0.60;;;;;;;;;;5051730;28;20505;-71
2021/05/05 12:58:10;;;;;;;5.82;0.98;;;;;;;;;;5047255;28;20075;-71
2021/05/05 13:00:39;;;;;;;4.70;0.85;;;;;;;;;;5054003;28;20025;-70
2021/05/05 13:03:15;;;;;;;5.25;0.52;;;;;;;;;;5053555;28;20956;-71
2021/05/05 13:05:57;;;;;;;13.38;0.70;;;;;;;;;;5035337;28;20043;-71
2021/05/05 13:08:33;;;;;;;4.45;0.88;;;;;;;;;;5045104;28;20048;-71
2021/05/05 13:11:05;;;;;;;6.95;1.02;;;;;;;;;;5035379;28;20037;-71
2021/05/05 13:13:53;;;;;;;6.68;1.08;;;;;;;;;;5039076;28;20013;-71
2021/05/05 13:16:43;;;;;;;4.80;0.60;;;;;;;;;;5047227;28;20481;-71
2021/05/05 13:19:31;;;;;;;5.30;0.80;;;;;;;;;;5048137;28;20460;-71
2021/05/05 13:32:57;;;;;;;3.97;1.33;;;;;;;;;;5051963;28;20047;-71
2021/05/05 13:35:26;;;;;;;9.43;1.77;;;;;;;;;;5049417;28;20044;-71
2021/05/05 13:37:57;;;;;;;7.68;1.80;;;;;;;;;;5045259;28;20021;-71
2021/05/05 13:40:25;;;;;;;6.70;1.35;;;;;;;;;;5035164;28;20363;-71
2021/05/05 13:42:56;;;;;;;6.57;1.63;;;;;;;;;;5035116;28;20075;-71
2021/05/05 13:45:23;;;;;;;7.60;1.55;;;;;;;;;;5049421;28;20399;-71
2021/05/05 13:50:29;;;;;;;8.98;1.83;;;;;;;;;;5041457;28;20389;-71
2021/05/05 13:52:56;;;;;;;7.45;1.83;;;;;;;;;;5046895;28;20029;-71
2021/05/05 13:55:23;;;;;;;5.60;1.30;;;;;;;;;;5042770;28;20067;-71
2021/05/05 13:57:50;;;;;;;8.15;3.45;;;;;;;;;;5048525;28;20029;-71
2021/05/05 14:00:18;;;;;;;10.02;3.25;;;;;;;;;;5053905;28;20028;-71
2021/05/05 14:02:45;;;;;;;12.35;4.22;;;;;;;;;;5050962;28;20481;-71
2021/05/05 14:05:13;;;;;;;7.72;3.72;;;;;;;;;;5048793;28;20062;-71
2021/05/05 14:07:41;;;;;;;8.48;3.05;;;;;;;;;;5040942;28;20021;-71
2021/05/05 14:10:09;;;;;;;7.93;3.03;;;;;;;;;;5050430;28;20029;-71
2021/05/05 14:12:37;;;;;;;5.82;2.50;;;;;;;;;;5035314;28;20529;-71
2021/05/05 14:15:05;;;;;;;7.90;3.42;;;;;;;;;;5044380;28;20052;-71
2021/05/05 14:17:37;;;;;;;5.85;2.30;;;;;;;;;;5053643;28;20067;-71
2021/05/05 14:20:09;;;;;;;10.35;2.42;;;;;;;;;;5046823;28;20096;-71
2021/05/05 14:22:36;;;;;;;10.55;1.60;;;;;;;;;;5034429;28;20414;-71
2021/05/05 14:25:06;;;;;;;11.63;2.38;;;;;;;;;;5036597;28;20036;-71
2021/05/05 14:27:34;;;;;;;9.07;2.20;;;;;;;;;;5051718;28;20040;-71
2021/05/05 14:30:01;;;;;;;5.72;1.50;;;;;;;;;;5053033;28;20028;-71
2021/05/05 14:32:28;;;;;;;6.32;1.42;;;;;;;;;;5049284;28;20029;-71
2021/05/05 14:34:55;;;;;;;12.50;1.95;;;;;;;;;;5047115;28;20114;-71
2021/05/05 14:37:24;;;;;;;12.85;1.85;;;;;;;;;;5040002;28;20025;-71
2021/05/05 14:39:52;;;;;;;10.02;1.85;;;;;;;;;;5034368;28;20052;-71
2021/05/05 14:42:25;;;;;;;17.83;2.85;;;;;;;;;;5035531;28;20018;-71
2021/05/05 14:48:27;;;;;;;18.42;2.72;;;;;;;;;;5050661;28;20041;-71
2021/05/05 14:50:21;;;;;;;15.30;2.33;;;;;;;;;;5033202;28;20029;-70